sensor_id;sensor_type;location;lat;lon;timestamp;temperature;humidity
4386;DHT22;2207;53.540;10.042;2024-02-23T00:00:59;9.80;67.10
4386;DHT22;2207;53.540;10.042;2024-02-23T00:03:26;9.90;68.80
4386;DHT22;2207;53.540;10.042;2024-02-23T00:05:53;9.90;67.20
4386;DHT22;2207;53.540;10.042;2024-02-23T00:08:20;9.90;67.20
4386;DHT22;2207;53.540;10.042;2024-02-23T00:10:48;9.90;67.60
4386;DHT22;2207;53.540;10.042;2024-02-23T00:13:15;9.80;68.70
4386;DHT22;2207;53.540;10.042;2024-02-23T00:15:42;9.70;69.50
4386;DHT22;2207;53.540;10.042;2024-02-23T00:18:09;9.70;69.90
4386;DHT22;2207;53.540;10.042;2024-02-23T00:20:38;9.60;70.50
4386;DHT22;2207;53.540;10.042;2024-02-23T00:23:05;9.50;71.40
4386;DHT22;2207;53.540;10.042;2024-02-23T00:25:32;9.40;70.70
4386;DHT22;2207;53.540;10.042;2024-02-23T00:28:00;9.30;70.80
4386;DHT22;2207;53.540;10.042;2024-02-23T00:30:27;9.30;69.40
4386;DHT22;2207;53.540;10.042;2024-02-23T00:32:54;9.20;68.70
4386;DHT22;2207;53.540;10.042;2024-02-23T00:35:21;9.20;68.70
4386;DHT22;2207;53.540;10.042;2024-02-23T00:37:48;9.20;68.40
4386;DHT22;2207;53.540;10.042;2024-02-23T00:40:15;9.10;68.10
4386;DHT22;2207;53.540;10.042;2024-02-23T00:42:42;9.10;69.30
4386;DHT22;2207;53.540;10.042;2024-02-23T00:45:10;9.20;67.00
4386;DHT22;2207;53.540;10.042;2024-02-23T00:47:37;9.30;66.60
4386;DHT22;2207;53.540;10.042;2024-02-23T00:50:05;9.40;67.40
4386;DHT22;2207;53.540;10.042;2024-02-23T00:52:32;9.40;67.50
4386;DHT22;2207;53.540;10.042;2024-02-23T00:54:59;9.30;67.60
4386;DHT22;2207;53.540;10.042;2024-02-23T00:57:26;9.20;69.60
4386;DHT22;2207;53.540;10.042;2024-02-23T00:59:55;8.60;73.80
4386;DHT22;2207;53.540;10.042;2024-02-23T01:02:24;7.90;80.50
4386;DHT22;2207;53.540;10.042;2024-02-23T01:04:50;7.30;85.30
4386;DHT22;2207;53.540;10.042;2024-02-23T01:07:22;6.80;88.90
4386;DHT22;2207;53.540;10.042;2024-02-23T01:09:49;6.50;90.90
4386;DHT22;2207;53.540;10.042;2024-02-23T01:12:15;6.40;91.90
4386;DHT22;2207;53.540;10.042;2024-02-23T01:14:42;6.20;92.50
4386;DHT22;2207;53.540;10.042;2024-02-23T01:17:09;6.10;93.20
4386;DHT22;2207;53.540;10.042;2024-02-23T01:19:37;6.10;93.80
4386;DHT22;2207;53.540;10.042;2024-02-23T01:22:04;6.10;94.00
4386;DHT22;2207;53.540;10.042;2024-02-23T01:24:31;6.00;94.20
4386;DHT22;2207;53.540;10.042;2024-02-23T01:26:58;6.00;94.20
4386;DHT22;2207;53.540;10.042;2024-02-23T01:29:26;5.90;94.40
4386;DHT22;2207;53.540;10.042;2024-02-23T01:31:53;5.80;94.60
4386;DHT22;2207;53.540;10.042;2024-02-23T01:34:20;5.80;94.80
4386;DHT22;2207;53.540;10.042;2024-02-23T01:36:49;5.80;94.80
4386;DHT22;2207;53.540;10.042;2024-02-23T01:39:16;5.90;95.00
4386;DHT22;2207;53.540;10.042;2024-02-23T01:41:42;5.90;95.20
4386;DHT22;2207;53.540;10.042;2024-02-23T01:44:10;5.90;95.40
4386;DHT22;2207;53.540;10.042;2024-02-23T01:46:37;6.00;95.30
4386;DHT22;2207;53.540;10.042;2024-02-23T01:49:05;6.00;95.10
4386;DHT22;2207;53.540;10.042;2024-02-23T01:51:33;6.00;95.10
4386;DHT22;2207;53.540;10.042;2024-02-23T01:54:01;6.10;95.10
4386;DHT22;2207;53.540;10.042;2024-02-23T01:56:29;6.10;95.00
4386;DHT22;2207;53.540;10.042;2024-02-23T01:58:56;6.10;95.00
4386;DHT22;2207;53.540;10.042;2024-02-23T02:01:23;6.20;94.90
4386;DHT22;2207;53.540;10.042;2024-02-23T02:03:50;6.20;94.70
4386;DHT22;2207;53.540;10.042;2024-02-23T02:06:17;6.20;94.10
4386;DHT22;2207;53.540;10.042;2024-02-23T02:08:46;6.20;94.00
4386;DHT22;2207;53.540;10.042;2024-02-23T02:11:14;6.20;94.00
4386;DHT22;2207;53.540;10.042;2024-02-23T02:13:41;6.20;93.80
4386;DHT22;2207;53.540;10.042;2024-02-23T02:16:08;6.30;93.40
4386;DHT22;2207;53.540;10.042;2024-02-23T02:18:36;6.30;92.70
4386;DHT22;2207;53.540;10.042;2024-02-23T02:21:03;6.30;92.20
4386;DHT22;2207;53.540;10.042;2024-02-23T02:23:30;6.30;91.50
4386;DHT22;2207;53.540;10.042;2024-02-23T02:25:58;6.30;90.90
4386;DHT22;2207;53.540;10.042;2024-02-23T02:28:26;6.30;90.90
4386;DHT22;2207;53.540;10.042;2024-02-23T02:30:53;6.20;91.00
4386;DHT22;2207;53.540;10.042;2024-02-23T02:33:20;6.10;90.70
4386;DHT22;2207;53.540;10.042;2024-02-23T02:35:47;6.10;91.10
4386;DHT22;2207;53.540;10.042;2024-02-23T02:38:15;6.00;91.20
4386;DHT22;2207;53.540;10.042;2024-02-23T02:40:42;6.00;91.20
4386;DHT22;2207;53.540;10.042;2024-02-23T02:43:09;6.00;91.20
4386;DHT22;2207;53.540;10.042;2024-02-23T02:45:37;6.00;91.00
4386;DHT22;2207;53.540;10.042;2024-02-23T02:48:04;6.00;91.10
4386;DHT22;2207;53.540;10.042;2024-02-23T02:50:31;5.90;91.00
4386;DHT22;2207;53.540;10.042;2024-02-23T02:52:58;5.90;91.00
4386;DHT22;2207;53.540;10.042;2024-02-23T02:55:25;5.80;91.10
4386;DHT22;2207;53.540;10.042;2024-02-23T02:57:52;5.80;91.20
4386;DHT22;2207;53.540;10.042;2024-02-23T03:00:19;5.80;91.20
4386;DHT22;2207;53.540;10.042;2024-02-23T03:02:47;5.80;91.30
4386;DHT22;2207;53.540;10.042;2024-02-23T03:05:14;5.80;91.50
4386;DHT22;2207;53.540;10.042;2024-02-23T03:07:41;5.80;91.40
4386;DHT22;2207;53.540;10.042;2024-02-23T03:10:08;5.80;91.10
4386;DHT22;2207;53.540;10.042;2024-02-23T03:12:35;5.70;91.10
4386;DHT22;2207;53.540;10.042;2024-02-23T03:15:02;5.70;90.90
4386;DHT22;2207;53.540;10.042;2024-02-23T03:17:29;5.70;90.70
4386;DHT22;2207;53.540;10.042;2024-02-23T03:19:57;5.70;90.60
4386;DHT22;2207;53.540;10.042;2024-02-23T03:22:24;5.60;90.60
4386;DHT22;2207;53.540;10.042;2024-02-23T03:24:51;5.50;90.70
4386;DHT22;2207;53.540;10.042;2024-02-23T03:27:18;5.60;90.80
4386;DHT22;2207;53.540;10.042;2024-02-23T03:29:45;5.60;90.50
4386;DHT22;2207;53.540;10.042;2024-02-23T03:32:12;5.60;89.90
4386;DHT22;2207;53.540;10.042;2024-02-23T03:34:39;5.70;89.00
4386;DHT22;2207;53.540;10.042;2024-02-23T03:37:07;5.70;88.20
4386;DHT22;2207;53.540;10.042;2024-02-23T03:39:34;5.80;87.50
4386;DHT22;2207;53.540;10.042;2024-02-23T03:42:04;5.70;87.40
4386;DHT22;2207;53.540;10.042;2024-02-23T03:44:31;5.60;87.40
4386;DHT22;2207;53.540;10.042;2024-02-23T03:46:58;5.60;88.30
4386;DHT22;2207;53.540;10.042;2024-02-23T03:49:24;5.50;88.50
4386;DHT22;2207;53.540;10.042;2024-02-23T03:51:51;5.40;88.90
4386;DHT22;2207;53.540;10.042;2024-02-23T03:54:20;5.30;89.60
4386;DHT22;2207;53.540;10.042;2024-02-23T03:56:47;5.30;89.60
4386;DHT22;2207;53.540;10.042;2024-02-23T03:59:14;5.20;89.50
4386;DHT22;2207;53.540;10.042;2024-02-23T04:01:41;5.20;89.50
4386;DHT22;2207;53.540;10.042;2024-02-23T04:04:08;5.20;89.10
4386;DHT22;2207;53.540;10.042;2024-02-23T04:06:35;5.10;89.10
4386;DHT22;2207;53.540;10.042;2024-02-23T04:09:02;5.10;89.10
4386;DHT22;2207;53.540;10.042;2024-02-23T04:11:31;5.10;88.70
4386;DHT22;2207;53.540;10.042;2024-02-23T04:13:58;5.10;88.30
4386;DHT22;2207;53.540;10.042;2024-02-23T04:16:26;5.10;88.30
4386;DHT22;2207;53.540;10.042;2024-02-23T04:18:53;5.20;88.60
4386;DHT22;2207;53.540;10.042;2024-02-23T04:21:21;5.30;88.30
4386;DHT22;2207;53.540;10.042;2024-02-23T04:23:48;5.30;88.10
4386;DHT22;2207;53.540;10.042;2024-02-23T04:26:15;5.30;87.20
4386;DHT22;2207;53.540;10.042;2024-02-23T04:28:43;5.30;87.70
4386;DHT22;2207;53.540;10.042;2024-02-23T04:31:10;5.40;87.20
4386;DHT22;2207;53.540;10.042;2024-02-23T04:33:38;5.40;86.50
4386;DHT22;2207;53.540;10.042;2024-02-23T04:36:05;5.40;86.10
4386;DHT22;2207;53.540;10.042;2024-02-23T04:38:33;5.40;86.00
4386;DHT22;2207;53.540;10.042;2024-02-23T04:41:03;5.50;86.00
4386;DHT22;2207;53.540;10.042;2024-02-23T04:43:31;5.50;86.30
4386;DHT22;2207;53.540;10.042;2024-02-23T04:45:59;5.50;86.20
4386;DHT22;2207;53.540;10.042;2024-02-23T04:48:26;5.50;86.00
4386;DHT22;2207;53.540;10.042;2024-02-23T04:50:53;5.40;85.60
4386;DHT22;2207;53.540;10.042;2024-02-23T04:53:19;5.40;86.40
4386;DHT22;2207;53.540;10.042;2024-02-23T04:55:46;5.50;86.10
4386;DHT22;2207;53.540;10.042;2024-02-23T04:58:13;5.50;86.00
4386;DHT22;2207;53.540;10.042;2024-02-23T05:00:40;5.50;86.00
4386;DHT22;2207;53.540;10.042;2024-02-23T05:03:08;5.40;85.40
4386;DHT22;2207;53.540;10.042;2024-02-23T05:05:36;5.30;85.50
4386;DHT22;2207;53.540;10.042;2024-02-23T05:08:03;5.20;86.20
4386;DHT22;2207;53.540;10.042;2024-02-23T05:10:30;5.20;87.00
4386;DHT22;2207;53.540;10.042;2024-02-23T05:12:57;5.10;86.80
4386;DHT22;2207;53.540;10.042;2024-02-23T05:15:24;5.10;87.30
4386;DHT22;2207;53.540;10.042;2024-02-23T05:17:51;5.10;87.50
4386;DHT22;2207;53.540;10.042;2024-02-23T05:20:19;5.00;87.50
4386;DHT22;2207;53.540;10.042;2024-02-23T05:22:47;5.00;87.50
4386;DHT22;2207;53.540;10.042;2024-02-23T05:25:13;5.00;87.00
4386;DHT22;2207;53.540;10.042;2024-02-23T05:27:40;5.00;86.40
4386;DHT22;2207;53.540;10.042;2024-02-23T05:30:08;5.00;86.20
4386;DHT22;2207;53.540;10.042;2024-02-23T05:32:36;5.00;85.90
4386;DHT22;2207;53.540;10.042;2024-02-23T05:35:03;4.90;86.20
4386;DHT22;2207;53.540;10.042;2024-02-23T05:37:31;4.90;86.50
4386;DHT22;2207;53.540;10.042;2024-02-23T05:39:58;4.90;86.20
4386;DHT22;2207;53.540;10.042;2024-02-23T05:42:25;4.90;86.60
4386;DHT22;2207;53.540;10.042;2024-02-23T05:44:52;4.90;86.60
4386;DHT22;2207;53.540;10.042;2024-02-23T05:47:19;5.00;86.10
4386;DHT22;2207;53.540;10.042;2024-02-23T05:49:47;5.10;85.40
4386;DHT22;2207;53.540;10.042;2024-02-23T05:52:13;5.20;85.10
4386;DHT22;2207;53.540;10.042;2024-02-23T05:54:42;5.20;84.30
4386;DHT22;2207;53.540;10.042;2024-02-23T05:57:08;5.10;84.10
4386;DHT22;2207;53.540;10.042;2024-02-23T05:59:35;5.20;84.70
4386;DHT22;2207;53.540;10.042;2024-02-23T06:02:02;5.20;83.90
4386;DHT22;2207;53.540;10.042;2024-02-23T06:04:29;5.10;84.00
4386;DHT22;2207;53.540;10.042;2024-02-23T06:06:56;5.00;84.70
4386;DHT22;2207;53.540;10.042;2024-02-23T06:09:23;5.00;85.10
4386;DHT22;2207;53.540;10.042;2024-02-23T06:11:51;5.00;84.30
4386;DHT22;2207;53.540;10.042;2024-02-23T06:14:18;5.10;84.10
4386;DHT22;2207;53.540;10.042;2024-02-23T06:16:45;5.10;83.70
4386;DHT22;2207;53.540;10.042;2024-02-23T06:19:12;5.10;83.40
4386;DHT22;2207;53.540;10.042;2024-02-23T06:21:39;5.00;83.10
4386;DHT22;2207;53.540;10.042;2024-02-23T06:24:06;5.00;84.20
4386;DHT22;2207;53.540;10.042;2024-02-23T06:26:34;5.00;83.10
4386;DHT22;2207;53.540;10.042;2024-02-23T06:29:02;5.00;83.20
4386;DHT22;2207;53.540;10.042;2024-02-23T06:31:29;5.00;83.20
4386;DHT22;2207;53.540;10.042;2024-02-23T06:33:56;5.00;82.50
4386;DHT22;2207;53.540;10.042;2024-02-23T06:36:22;5.00;82.60
4386;DHT22;2207;53.540;10.042;2024-02-23T06:38:50;4.90;83.00
4386;DHT22;2207;53.540;10.042;2024-02-23T06:41:17;4.90;83.30
4386;DHT22;2207;53.540;10.042;2024-02-23T06:43:44;5.00;83.30
4386;DHT22;2207;53.540;10.042;2024-02-23T06:46:12;5.00;83.00
4386;DHT22;2207;53.540;10.042;2024-02-23T06:48:39;5.00;82.80
4386;DHT22;2207;53.540;10.042;2024-02-23T06:51:07;5.00;83.20
4386;DHT22;2207;53.540;10.042;2024-02-23T06:53:35;5.00;83.50
4386;DHT22;2207;53.540;10.042;2024-02-23T06:56:02;5.10;83.70
4386;DHT22;2207;53.540;10.042;2024-02-23T06:58:29;5.00;83.70
4386;DHT22;2207;53.540;10.042;2024-02-23T07:00:56;5.10;83.90
4386;DHT22;2207;53.540;10.042;2024-02-23T07:03:24;5.10;83.90
4386;DHT22;2207;53.540;10.042;2024-02-23T07:06:00;5.10;83.80
4386;DHT22;2207;53.540;10.042;2024-02-23T07:08:28;5.20;83.70
4386;DHT22;2207;53.540;10.042;2024-02-23T07:10:55;5.20;83.90
4386;DHT22;2207;53.540;10.042;2024-02-23T07:13:22;5.40;83.90
4386;DHT22;2207;53.540;10.042;2024-02-23T07:15:49;5.50;84.50
4386;DHT22;2207;53.540;10.042;2024-02-23T07:18:16;5.80;84.40
4386;DHT22;2207;53.540;10.042;2024-02-23T07:20:44;6.00;83.30
4386;DHT22;2207;53.540;10.042;2024-02-23T07:23:11;6.10;82.40
4386;DHT22;2207;53.540;10.042;2024-02-23T07:25:38;6.20;81.80
4386;DHT22;2207;53.540;10.042;2024-02-23T07:28:06;6.20;80.40
4386;DHT22;2207;53.540;10.042;2024-02-23T07:30:35;6.20;80.00
4386;DHT22;2207;53.540;10.042;2024-02-23T07:33:02;6.20;79.40
4386;DHT22;2207;53.540;10.042;2024-02-23T07:35:29;6.10;79.10
4386;DHT22;2207;53.540;10.042;2024-02-23T07:37:57;6.20;78.90
4386;DHT22;2207;53.540;10.042;2024-02-23T07:40:25;6.30;79.40
4386;DHT22;2207;53.540;10.042;2024-02-23T07:42:52;6.30;78.80
4386;DHT22;2207;53.540;10.042;2024-02-23T07:45:18;6.40;78.40
4386;DHT22;2207;53.540;10.042;2024-02-23T07:47:45;6.60;78.20
4386;DHT22;2207;53.540;10.042;2024-02-23T07:50:12;7.90;73.80
4386;DHT22;2207;53.540;10.042;2024-02-23T07:52:39;9.10;69.30
4386;DHT22;2207;53.540;10.042;2024-02-23T07:55:08;10.20;64.00
4386;DHT22;2207;53.540;10.042;2024-02-23T07:57:35;10.90;62.00
4386;DHT22;2207;53.540;10.042;2024-02-23T08:00:04;10.70;58.90
4386;DHT22;2207;53.540;10.042;2024-02-23T08:02:32;10.50;58.40
4386;DHT22;2207;53.540;10.042;2024-02-23T08:04:59;9.50;58.70
4386;DHT22;2207;53.540;10.042;2024-02-23T08:07:26;8.60;60.80
4386;DHT22;2207;53.540;10.042;2024-02-23T08:09:53;8.00;63.70
4386;DHT22;2207;53.540;10.042;2024-02-23T08:12:22;7.90;65.70
4386;DHT22;2207;53.540;10.042;2024-02-23T08:14:48;8.30;65.30
4386;DHT22;2207;53.540;10.042;2024-02-23T08:17:18;9.90;63.40
4386;DHT22;2207;53.540;10.042;2024-02-23T08:19:46;11.50;58.70
4386;DHT22;2207;53.540;10.042;2024-02-23T08:22:13;12.70;55.20
4386;DHT22;2207;53.540;10.042;2024-02-23T08:24:40;13.30;51.50
4386;DHT22;2207;53.540;10.042;2024-02-23T08:27:06;13.80;52.90
4386;DHT22;2207;53.540;10.042;2024-02-23T08:29:37;14.60;50.90
4386;DHT22;2207;53.540;10.042;2024-02-23T08:32:05;14.80;47.60
4386;DHT22;2207;53.540;10.042;2024-02-23T08:34:32;14.30;46.90
4386;DHT22;2207;53.540;10.042;2024-02-23T08:36:59;13.90;47.60
4386;DHT22;2207;53.540;10.042;2024-02-23T08:39:27;13.60;48.30
4386;DHT22;2207;53.540;10.042;2024-02-23T08:41:54;13.10;49.00
4386;DHT22;2207;53.540;10.042;2024-02-23T08:44:21;12.80;49.30
4386;DHT22;2207;53.540;10.042;2024-02-23T08:46:49;11.70;51.30
4386;DHT22;2207;53.540;10.042;2024-02-23T08:49:16;10.80;52.40
4386;DHT22;2207;53.540;10.042;2024-02-23T08:51:43;11.40;54.20
4386;DHT22;2207;53.540;10.042;2024-02-23T08:54:10;11.70;51.10
4386;DHT22;2207;53.540;10.042;2024-02-23T08:56:37;11.00;51.90
4386;DHT22;2207;53.540;10.042;2024-02-23T08:59:07;10.30;53.20
4386;DHT22;2207;53.540;10.042;2024-02-23T09:01:34;9.80;55.50
4386;DHT22;2207;53.540;10.042;2024-02-23T09:04:06;9.50;57.40
4386;DHT22;2207;53.540;10.042;2024-02-23T09:06:33;9.40;57.80
4386;DHT22;2207;53.540;10.042;2024-02-23T09:09:00;9.40;57.90
4386;DHT22;2207;53.540;10.042;2024-02-23T09:11:26;9.60;57.60
4386;DHT22;2207;53.540;10.042;2024-02-23T09:13:53;9.70;57.10
4386;DHT22;2207;53.540;10.042;2024-02-23T09:16:20;9.60;57.70
4386;DHT22;2207;53.540;10.042;2024-02-23T09:18:48;9.60;57.50
4386;DHT22;2207;53.540;10.042;2024-02-23T09:21:17;9.50;57.10
4386;DHT22;2207;53.540;10.042;2024-02-23T09:23:44;9.40;57.90
4386;DHT22;2207;53.540;10.042;2024-02-23T09:26:11;9.30;57.80
4386;DHT22;2207;53.540;10.042;2024-02-23T09:28:38;9.10;57.80
4386;DHT22;2207;53.540;10.042;2024-02-23T09:31:07;8.80;58.10
4386;DHT22;2207;53.540;10.042;2024-02-23T09:33:34;8.70;58.60
4386;DHT22;2207;53.540;10.042;2024-02-23T09:36:01;8.70;58.90
4386;DHT22;2207;53.540;10.042;2024-02-23T09:38:29;8.70;59.40
4386;DHT22;2207;53.540;10.042;2024-02-23T09:40:58;8.90;60.50
4386;DHT22;2207;53.540;10.042;2024-02-23T09:43:27;9.00;59.40
4386;DHT22;2207;53.540;10.042;2024-02-23T09:45:56;9.10;59.30
4386;DHT22;2207;53.540;10.042;2024-02-23T09:48:23;9.40;58.10
4386;DHT22;2207;53.540;10.042;2024-02-23T09:50:52;9.90;57.40
4386;DHT22;2207;53.540;10.042;2024-02-23T09:53:19;10.00;55.40
4386;DHT22;2207;53.540;10.042;2024-02-23T09:55:50;10.10;55.60
4386;DHT22;2207;53.540;10.042;2024-02-23T09:58:18;10.20;55.50
4386;DHT22;2207;53.540;10.042;2024-02-23T10:00:46;10.30;54.90
4386;DHT22;2207;53.540;10.042;2024-02-23T10:03:13;10.20;55.20
4386;DHT22;2207;53.540;10.042;2024-02-23T10:05:40;10.10;55.30
4386;DHT22;2207;53.540;10.042;2024-02-23T10:08:08;10.50;54.40
4386;DHT22;2207;53.540;10.042;2024-02-23T10:10:35;10.50;54.10
4386;DHT22;2207;53.540;10.042;2024-02-23T10:13:03;10.70;53.60
4386;DHT22;2207;53.540;10.042;2024-02-23T10:15:31;10.60;53.30
4386;DHT22;2207;53.540;10.042;2024-02-23T10:17:58;10.70;54.00
4386;DHT22;2207;53.540;10.042;2024-02-23T10:20:25;11.00;54.10
4386;DHT22;2207;53.540;10.042;2024-02-23T10:22:52;12.60;51.90
4386;DHT22;2207;53.540;10.042;2024-02-23T10:25:19;16.10;47.20
4386;DHT22;2207;53.540;10.042;2024-02-23T10:27:46;16.50;42.80
4386;DHT22;2207;53.540;10.042;2024-02-23T10:30:15;18.30;40.60
4386;DHT22;2207;53.540;10.042;2024-02-23T10:32:42;18.00;37.70
4386;DHT22;2207;53.540;10.042;2024-02-23T10:35:13;16.20;39.70
4386;DHT22;2207;53.540;10.042;2024-02-23T10:37:42;14.90;41.60
4386;DHT22;2207;53.540;10.042;2024-02-23T10:40:11;14.10;43.20
4386;DHT22;2207;53.540;10.042;2024-02-23T10:42:39;13.40;44.60
4386;DHT22;2207;53.540;10.042;2024-02-23T10:45:08;13.20;45.90
4386;DHT22;2207;53.540;10.042;2024-02-23T10:47:37;13.60;46.30
4386;DHT22;2207;53.540;10.042;2024-02-23T10:50:04;13.50;45.50
4386;DHT22;2207;53.540;10.042;2024-02-23T10:52:33;12.80;44.90
4386;DHT22;2207;53.540;10.042;2024-02-23T10:55:01;11.90;46.80
4386;DHT22;2207;53.540;10.042;2024-02-23T10:57:30;11.20;48.50
4386;DHT22;2207;53.540;10.042;2024-02-23T10:59:58;10.90;49.70
4386;DHT22;2207;53.540;10.042;2024-02-23T11:02:28;10.60;50.20
4386;DHT22;2207;53.540;10.042;2024-02-23T11:04:59;10.60;51.20
4386;DHT22;2207;53.540;10.042;2024-02-23T11:07:30;10.70;51.70
4386;DHT22;2207;53.540;10.042;2024-02-23T11:09:59;11.00;51.00
4386;DHT22;2207;53.540;10.042;2024-02-23T11:12:26;11.20;49.90
4386;DHT22;2207;53.540;10.042;2024-02-23T11:14:57;11.20;49.10
4386;DHT22;2207;53.540;10.042;2024-02-23T11:17:26;11.10;49.20
4386;DHT22;2207;53.540;10.042;2024-02-23T11:19:55;10.80;50.00
4386;DHT22;2207;53.540;10.042;2024-02-23T11:22:27;10.50;50.10
4386;DHT22;2207;53.540;10.042;2024-02-23T11:25:00;10.20;50.60
4386;DHT22;2207;53.540;10.042;2024-02-23T11:27:30;10.00;51.80
4386;DHT22;2207;53.540;10.042;2024-02-23T11:30:06;9.90;52.80
4386;DHT22;2207;53.540;10.042;2024-02-23T11:32:40;9.80;53.40
4386;DHT22;2207;53.540;10.042;2024-02-23T11:35:10;9.70;53.60
4386;DHT22;2207;53.540;10.042;2024-02-23T11:37:48;9.70;53.80
4386;DHT22;2207;53.540;10.042;2024-02-23T11:40:17;9.70;53.90
4386;DHT22;2207;53.540;10.042;2024-02-23T11:42:45;9.80;54.10
4386;DHT22;2207;53.540;10.042;2024-02-23T11:45:13;9.90;53.70
4386;DHT22;2207;53.540;10.042;2024-02-23T11:47:40;10.10;52.70
4386;DHT22;2207;53.540;10.042;2024-02-23T11:50:08;10.60;51.80
4386;DHT22;2207;53.540;10.042;2024-02-23T11:52:36;10.90;51.00
4386;DHT22;2207;53.540;10.042;2024-02-23T11:55:07;10.90;50.80
4386;DHT22;2207;53.540;10.042;2024-02-23T11:57:34;10.80;50.30
4386;DHT22;2207;53.540;10.042;2024-02-23T12:00:01;10.70;50.60
4386;DHT22;2207;53.540;10.042;2024-02-23T12:02:28;10.60;50.60
4386;DHT22;2207;53.540;10.042;2024-02-23T12:04:55;10.50;50.30
4386;DHT22;2207;53.540;10.042;2024-02-23T12:07:22;10.30;49.10
4386;DHT22;2207;53.540;10.042;2024-02-23T12:09:51;10.10;49.70
4386;DHT22;2207;53.540;10.042;2024-02-23T12:12:19;9.80;50.80
4386;DHT22;2207;53.540;10.042;2024-02-23T12:14:46;9.60;51.30
4386;DHT22;2207;53.540;10.042;2024-02-23T12:17:13;9.60;52.00
4386;DHT22;2207;53.540;10.042;2024-02-23T12:19:41;9.50;52.10
4386;DHT22;2207;53.540;10.042;2024-02-23T12:22:09;9.60;52.80
4386;DHT22;2207;53.540;10.042;2024-02-23T12:24:36;9.70;52.50
4386;DHT22;2207;53.540;10.042;2024-02-23T12:27:03;9.90;51.60
4386;DHT22;2207;53.540;10.042;2024-02-23T12:29:32;9.90;51.70
4386;DHT22;2207;53.540;10.042;2024-02-23T12:32:03;9.80;52.10
4386;DHT22;2207;53.540;10.042;2024-02-23T12:34:31;9.70;51.20
4386;DHT22;2207;53.540;10.042;2024-02-23T12:36:58;9.70;52.00
4386;DHT22;2207;53.540;10.042;2024-02-23T12:39:24;9.70;52.20
4386;DHT22;2207;53.540;10.042;2024-02-23T12:41:52;9.80;52.40
4386;DHT22;2207;53.540;10.042;2024-02-23T12:44:19;9.80;51.20
4386;DHT22;2207;53.540;10.042;2024-02-23T12:46:47;9.80;51.20
4386;DHT22;2207;53.540;10.042;2024-02-23T12:49:14;9.80;51.00
4386;DHT22;2207;53.540;10.042;2024-02-23T12:51:41;9.80;50.40
4386;DHT22;2207;53.540;10.042;2024-02-23T12:54:08;9.90;51.20
4386;DHT22;2207;53.540;10.042;2024-02-23T12:56:35;10.00;50.30
4386;DHT22;2207;53.540;10.042;2024-02-23T12:59:02;10.10;49.80
4386;DHT22;2207;53.540;10.042;2024-02-23T13:01:29;10.10;49.20
4386;DHT22;2207;53.540;10.042;2024-02-23T13:03:58;10.10;49.60
4386;DHT22;2207;53.540;10.042;2024-02-23T13:06:25;10.10;49.70
4386;DHT22;2207;53.540;10.042;2024-02-23T13:08:52;10.10;49.70
4386;DHT22;2207;53.540;10.042;2024-02-23T13:11:22;10.00;49.00
4386;DHT22;2207;53.540;10.042;2024-02-23T13:13:49;10.00;49.70
4386;DHT22;2207;53.540;10.042;2024-02-23T13:16:16;10.10;49.70
4386;DHT22;2207;53.540;10.042;2024-02-23T13:18:43;10.10;49.10
4386;DHT22;2207;53.540;10.042;2024-02-23T13:21:13;10.10;49.20
4386;DHT22;2207;53.540;10.042;2024-02-23T13:23:40;10.10;49.80
4386;DHT22;2207;53.540;10.042;2024-02-23T13:26:08;10.00;49.10
4386;DHT22;2207;53.540;10.042;2024-02-23T13:28:36;10.00;49.30
4386;DHT22;2207;53.540;10.042;2024-02-23T13:31:03;9.90;50.50
4386;DHT22;2207;53.540;10.042;2024-02-23T13:33:30;9.70;50.50
4386;DHT22;2207;53.540;10.042;2024-02-23T13:35:56;9.60;50.80
4386;DHT22;2207;53.540;10.042;2024-02-23T13:38:25;9.50;51.20
4386;DHT22;2207;53.540;10.042;2024-02-23T13:40:51;9.40;51.50
4386;DHT22;2207;53.540;10.042;2024-02-23T13:43:18;9.40;51.70
4386;DHT22;2207;53.540;10.042;2024-02-23T13:45:49;9.30;52.00
4386;DHT22;2207;53.540;10.042;2024-02-23T13:48:17;9.30;52.00
4386;DHT22;2207;53.540;10.042;2024-02-23T13:50:44;9.30;52.20
4386;DHT22;2207;53.540;10.042;2024-02-23T13:53:11;9.20;52.40
4386;DHT22;2207;53.540;10.042;2024-02-23T13:55:40;9.20;52.30
4386;DHT22;2207;53.540;10.042;2024-02-23T13:58:08;9.10;52.50
4386;DHT22;2207;53.540;10.042;2024-02-23T14:00:35;9.10;52.50
4386;DHT22;2207;53.540;10.042;2024-02-23T14:03:02;9.20;51.60
4386;DHT22;2207;53.540;10.042;2024-02-23T14:05:29;9.20;51.50
4386;DHT22;2207;53.540;10.042;2024-02-23T14:07:56;9.30;51.70
4386;DHT22;2207;53.540;10.042;2024-02-23T14:10:23;9.30;51.20
4386;DHT22;2207;53.540;10.042;2024-02-23T14:12:51;9.30;51.40
4386;DHT22;2207;53.540;10.042;2024-02-23T14:15:18;9.40;51.50
4386;DHT22;2207;53.540;10.042;2024-02-23T14:17:45;9.50;50.90
4386;DHT22;2207;53.540;10.042;2024-02-23T14:20:12;9.60;51.00
4386;DHT22;2207;53.540;10.042;2024-02-23T14:22:39;9.70;50.90
4386;DHT22;2207;53.540;10.042;2024-02-23T14:25:06;9.90;50.50
4386;DHT22;2207;53.540;10.042;2024-02-23T14:27:33;10.00;49.70
4386;DHT22;2207;53.540;10.042;2024-02-23T14:30:01;10.20;49.50
4386;DHT22;2207;53.540;10.042;2024-02-23T14:32:28;11.90;48.60
4386;DHT22;2207;53.540;10.042;2024-02-23T14:34:56;12.60;46.40
4386;DHT22;2207;53.540;10.042;2024-02-23T14:37:23;13.50;44.10
4386;DHT22;2207;53.540;10.042;2024-02-23T14:39:50;14.50;43.00
4386;DHT22;2207;53.540;10.042;2024-02-23T14:42:17;17.40;39.80
4386;DHT22;2207;53.540;10.042;2024-02-23T14:44:44;16.80;37.30
4386;DHT22;2207;53.540;10.042;2024-02-23T14:47:13;15.40;38.10
4386;DHT22;2207;53.540;10.042;2024-02-23T14:49:39;14.00;39.60
4386;DHT22;2207;53.540;10.042;2024-02-23T14:52:06;12.70;41.30
4386;DHT22;2207;53.540;10.042;2024-02-23T14:54:33;11.80;43.20
4386;DHT22;2207;53.540;10.042;2024-02-23T14:57:01;11.30;45.00
4386;DHT22;2207;53.540;10.042;2024-02-23T14:59:29;10.90;46.40
4386;DHT22;2207;53.540;10.042;2024-02-23T15:01:56;10.60;46.70
4386;DHT22;2207;53.540;10.042;2024-02-23T15:04:24;10.30;47.40
4386;DHT22;2207;53.540;10.042;2024-02-23T15:06:51;10.20;48.00
4386;DHT22;2207;53.540;10.042;2024-02-23T15:09:18;10.30;48.50
4386;DHT22;2207;53.540;10.042;2024-02-23T15:11:45;10.40;48.70
4386;DHT22;2207;53.540;10.042;2024-02-23T15:14:12;10.40;48.30
4386;DHT22;2207;53.540;10.042;2024-02-23T15:16:41;10.20;48.50
4386;DHT22;2207;53.540;10.042;2024-02-23T15:19:07;10.00;49.00
4386;DHT22;2207;53.540;10.042;2024-02-23T15:21:37;9.90;50.40
4386;DHT22;2207;53.540;10.042;2024-02-23T15:24:06;9.80;50.40
4386;DHT22;2207;53.540;10.042;2024-02-23T15:26:33;9.90;50.50
4386;DHT22;2207;53.540;10.042;2024-02-23T15:29:00;10.00;49.70
4386;DHT22;2207;53.540;10.042;2024-02-23T15:31:28;10.00;49.70
4386;DHT22;2207;53.540;10.042;2024-02-23T15:33:55;9.90;50.50
4386;DHT22;2207;53.540;10.042;2024-02-23T15:36:24;9.90;50.50
4386;DHT22;2207;53.540;10.042;2024-02-23T15:38:53;9.90;50.50
4386;DHT22;2207;53.540;10.042;2024-02-23T15:41:24;9.80;50.70
4386;DHT22;2207;53.540;10.042;2024-02-23T15:43:50;9.80;51.30
4386;DHT22;2207;53.540;10.042;2024-02-23T15:46:17;9.70;51.50
4386;DHT22;2207;53.540;10.042;2024-02-23T15:48:44;9.60;51.40
4386;DHT22;2207;53.540;10.042;2024-02-23T15:51:11;9.40;51.80
4386;DHT22;2207;53.540;10.042;2024-02-23T15:53:38;9.40;52.40
4386;DHT22;2207;53.540;10.042;2024-02-23T15:56:06;9.30;52.40
4386;DHT22;2207;53.540;10.042;2024-02-23T15:58:33;9.20;52.80